Latest Weather Observations for Point Perpendicular

IDN60801

Issued at 5:03 am EST Monday 21 August 2017 (issued every 30 minutes, with the page automatically refreshed every 10 minutes)

About weather observations | Map of weather stations | Latest weather observations for NSW | Other Formats
Station Details ID: 068151 Name: POINT PERPENDICULAR AWS Lat: -35.09 Lon: 150.80 Height: 85.0 m
Data from the previous 72 hours. | See also: Recent months at Point Perpendicular
Date/Time
EST
Temp
°C
App
Temp
°C
Dew
Point
°C
Rel
Hum
%
Delta-T
°C
Wind Press
QNH
hPa
Press
MSL
hPa
Rain since
9am
mm
Dir  Spd
km/h
Gust
km/h
Spd
kts
Gust
kts
21/05:00am 8.9 6.5 7.0 88 0.9 NW 9 11 5 6 1018.8 1018.8 0.0
21/04:30am 8.7 5.9 6.8 88 0.9 NW 11 13 6 7 1019.0 1019.0 0.0
21/04:00am 8.9 6.5 7.2 89 0.8 NW 9 11 5 6 1019.4 1019.4 0.0
21/03:30am 8.9 6.2 7.4 90 0.7 NW 11 11 6 6 1019.6 1019.6 0.0
21/03:00am 8.9 7.4 7.0 88 0.9 WNW 4 6 2 3 1019.8 1019.8 0.0
21/02:30am 9.2 7.9 7.5 89 0.8 WNW 4 6 2 3 1019.7 1019.7 0.0
21/02:00am 8.8 7.4 7.3 90 0.7 WNW 4 6 2 3 1019.7 1019.7 0.0
21/01:30am 8.9 7.9 7.5 91 0.7 W 2 4 1 2 1020.0 1020.0 0.0
21/01:00am 8.7 6.7 7.2 90 0.7 NW 7 9 4 5 1020.2 1020.2 0.0
21/12:30am 9.0 7.6 7.1 88 0.9 WNW 4 6 2 3 1020.5 1020.5 0.0
21/12:00am 9.0 7.3 7.5 90 0.7 WNW 6 7 3 4 1020.8 1020.8 0.0
 
Date/Time
EST
Temp
°C
App
Temp
°C
Dew
Point
°C
Rel
Hum
%
Delta-T
°C
Wind Press
QNH
hPa
Press
MSL
hPa
Rain since
9am
mm
Dir  Spd
km/h
Gust
km/h
Spd
kts
Gust
kts
20/11:30pm 9.3 8.0 7.6 89 0.8 WNW 4 7 2 4 1020.6 1020.6 0.0
20/11:00pm 9.6 8.4 8.0 90 0.8 WNW 4 4 2 2 1021.0 1021.0 0.0
20/10:30pm 9.5 8.3 7.9 90 0.8 WNW 4 6 2 3 1021.5 1021.5 0.0
20/10:00pm 9.5 8.2 7.8 89 0.8 WNW 4 6 2 3 1021.6 1021.6 0.0
20/09:30pm 10.2 8.6 8.0 86 1.1 WNW 6 7 3 4 1021.7 1021.7 0.0
20/09:00pm 10.5 8.4 8.3 86 1.1 NW 9 11 5 6 1021.8 1021.8 0.0
20/08:30pm 11.7 10.1 7.8 77 1.9 WNW 6 7 3 4 1021.7 1021.7 0.0
20/08:00pm 12.2 10.3 7.5 73 2.3 SSW 7 9 4 5 1021.7 1021.7 0.0
20/07:30pm 12.2 10.5 7.5 73 2.3 SSE 6 9 3 5 1021.8 1021.8 0.0
20/07:00pm 12.3 10.0 7.4 72 2.4 SSE 9 13 5 7 1021.6 1021.6 0.0
20/06:30pm 12.1 9.7 7.2 72 2.4 S 9 13 5 7 1021.7 1021.7 0.0
20/06:00pm 12.0 9.5 6.7 70 2.5 SSE 9 15 5 8 1021.4 1021.4 0.0
20/05:30pm 12.0 8.7 6.5 69 2.6 S 13 20 7 11 1021.5 1021.5 0.0
20/05:00pm 12.1 8.8 6.6 69 2.6 S 13 20 7 11 1021.4 1021.4 0.0
20/04:30pm 12.3 8.2 6.4 67 2.8 SSW 17 26 9 14 1021.4 1021.4 0.0
20/04:00pm 12.6 8.5 6.2 65 3.0 SSW 17 28 9 15 1021.8 1021.8 0.0
20/03:30pm 12.6 8.5 6.0 64 3.1 SSW 17 26 9 14 1021.7 1021.7 0.0
20/03:00pm 12.3 7.6 5.9 65 3.0 SSW 20 32 11 17 1021.8 1021.8 0.0
20/02:30pm 12.7 6.8 5.8 63 3.3 SSW 26 37 14 20 1021.8 1021.8 0.0
20/02:00pm 12.5 7.4 6.1 65 3.0 SSW 22 35 12 19 1022.3 1022.3 0.0
20/01:30pm 12.2 6.3 6.0 66 2.9 SSW 26 39 14 21 1022.3 1022.3 0.0
20/01:00pm 11.9 5.9 5.3 64 3.0 SSW 26 35 14 19 1022.6 1022.6 0.0
20/12:30pm 12.1 6.7 6.4 68 2.7 SSW 24 37 13 20 1022.8 1022.8 0.0
20/12:00pm 12.0 6.6 6.5 69 2.6 SSW 24 39 13 21 1023.0 1023.0 0.0
20/11:30am 11.9 6.5 6.2 68 2.7 SSW 24 35 13 19 1023.2 1023.2 0.0
20/11:00am 11.7 5.7 5.3 65 2.9 SSW 26 39 14 21 1023.7 1023.7 0.0
20/10:30am 11.6 4.8 5.0 64 3.0 SSW 30 44 16 24 1023.9 1023.9 0.0
20/10:00am 11.2 4.7 4.9 65 2.9 SSW 28 39 15 21 1024.2 1024.2 0.0
20/09:30am 10.7 4.4 3.7 62 3.1 SW 26 35 14 19 1024.4 1024.4 0.0
20/09:00am 10.7 5.1 3.7 62 3.1 SW 22 35 12 19 1024.3 1024.3 0.0
20/08:30am 10.7 5.8 4.0 63 3.0 SW 19 28 10 15 1024.4 1024.4 0.0
20/08:00am 10.9 4.4 4.6 65 2.8 SSW 28 41 15 22 1023.6 1023.6 0.0
20/07:32am 10.6 3.9 3.6 62 3.1 SSW 28 46 15 25 1023.7 1023.7 0.0
20/07:30am 10.7 3.7 4.2 64 2.9 SSW 30 46 16 25 1023.4 1023.4 0.0
20/07:24am 10.7 4.1 4.4 65 2.8 SW 28 46 15 25 1023.0 1023.0 0.0
20/07:00am 10.0 4.7 3.1 62 3.0 SW 20 33 11 18 1023.2 1023.2 0.0
20/06:30am 9.9 4.2 3.0 62 3.0 SW 22 35 12 19 1022.8 1022.8 0.0
20/06:00am 9.7 3.4 1.6 57 3.4 SW 24 37 13 20 1022.7 1022.7 0.0
20/05:30am 9.7 3.5 2.3 60 3.1 SW 24 35 13 19 1022.1 1022.1 0.0
20/05:00am 9.5 3.2 1.7 58 3.2 SW 24 41 13 22 1022.4 1022.4 0.0
20/04:30am 9.5 3.7 2.1 60 3.1 SW 22 35 12 19 1022.2 1022.2 0.0
20/04:00am 9.4 3.1 1.8 59 3.2 SW 24 39 13 21 1022.3 1022.3 0.0
20/03:30am 9.5 3.3 1.9 59 3.2 SW 24 41 13 22 1022.2 1022.2 0.0
20/03:00am 9.7 3.5 2.1 59 3.2 SW 24 39 13 21 1022.1 1022.1 0.0
20/02:30am 9.7 3.5 2.3 60 3.1 SW 24 33 13 18 1022.1 1022.1 0.0
20/02:00am 9.6 4.2 1.5 57 3.4 SW 19 28 10 15 1022.0 1022.0 0.0
20/01:30am 9.7 3.8 1.6 57 3.4 SW 22 39 12 21 1022.1 1022.1 0.0
20/01:00am 10.0 3.5 2.8 61 3.1 SW 26 41 14 22 1021.7 1021.7 0.0
20/12:44am 9.8 2.7 1.2 55 3.6 SW 28 48 15 26 1021.8 1021.8 0.0
20/12:30am 9.9 2.5 2.0 58 3.3 SW 30 44 16 24 1021.8 1021.8 0.0
20/12:03am 9.9 2.3 0.5 52 3.8 SW 30 48 16 26 1021.5 1021.5 0.0
20/12:00am 9.9 2.0 1.3 55 3.6 SW 32 48 17 26 1021.6 1021.6 0.0
 
Date/Time
EST
Temp
°C
App
Temp
°C
Dew
Point
°C
Rel
Hum
%
Delta-T
°C
Wind Press
QNH
hPa
Press
MSL
hPa
Rain since
9am
mm
Dir  Spd
km/h
Gust
km/h
Spd
kts
Gust
kts
19/11:30pm 10.0 2.9 1.1 54 3.7 SW 28 46 15 25 1021.7 1021.7 0.0
19/11:08pm 10.2 3.1 1.1 53 3.8 SW 28 46 15 25 1021.9 1021.9 0.0
19/11:00pm 10.3 2.3 1.4 54 3.7 SW 33 46 18 25 1021.9 1021.9 0.0
19/10:31pm 10.7 1.8 1.0 51 4.0 SSW 37 59 20 32 1021.2 1021.2 0.0
19/10:30pm 10.8 2.0 1.6 53 3.9 SSW 37 54 20 29 1021.0 1021.0 0.0
19/10:00pm 10.9 1.6 0.6 49 4.2 SSW 39 59 21 32 1021.6 1021.6 0.0
19/09:30pm 11.2 2.4 1.5 51 4.1 SSW 37 56 20 30 1021.5 1021.5 0.0
19/09:01pm 11.5 2.8 2.0 52 4.1 SSW 37 56 20 30 1021.7 1021.7 0.0
19/09:00pm 11.6 2.5 1.8 51 4.2 SSW 39 56 21 30 1021.4 1021.4 0.0
19/08:32pm 12.0 3.4 2.7 53 4.1 SSW 37 56 20 30 1020.4 1020.4 0.0
19/08:30pm 11.9 2.7 1.0 47 4.6 SSW 39 56 21 30 1020.6 1020.6 0.0
19/08:01pm 11.9 2.3 -1.3 40 5.3 SSW 39 57 21 31 1020.1 1020.1 0.0
19/08:00pm 12.0 2.2 0.1 44 4.9 SSW 41 57 22 31 1020.0 1020.0 0.0
19/07:30pm 12.2 2.9 0.9 46 4.8 SSW 39 61 21 33 1019.6 1019.6 0.0
19/07:00pm 12.3 4.0 4.0 57 3.7 SSW 37 56 20 30 1019.6 1019.6 0.0
19/06:30pm 12.3 3.6 1.9 49 4.5 SSW 37 56 20 30 1019.3 1019.3 0.0
19/06:00pm 12.1 3.0 1.7 49 4.4 SSW 39 63 21 34 1019.1 1019.1 0.0
19/05:30pm 11.9 3.9 5.8 66 2.9 SSW 37 57 20 31 1018.5 1018.5 0.0
19/05:00pm 11.9 4.2 5.3 64 3.1 SSW 35 57 19 31 1018.2 1018.2 0.0
19/04:30pm 11.9 2.5 4.6 61 3.3 SSW 43 67 23 36 1017.8 1017.8 0.0
19/04:00pm 12.0 2.5 5.0 62 3.2 SSW 44 63 24 34 1017.2 1017.2 0.0
19/03:30pm 12.2 3.2 4.7 60 3.4 SSW 41 67 22 36 1017.5 1017.5 0.0
19/03:00pm 12.3 4.2 3.5 55 3.9 SSW 35 54 19 29 1017.2 1017.2 0.0
19/02:30pm 12.2 3.0 3.7 56 3.8 SSW 41 63 22 34 1016.8 1016.8 0.0
19/02:00pm 12.2 2.5 2.9 53 4.1 SSW 43 65 23 35 1016.6 1016.6 0.0
19/01:31pm 11.8 2.0 3.6 57 3.7 SSW 44 63 24 34 1016.5 1016.5 0.0
19/01:30pm 11.8 2.0 3.1 55 3.8 SSW 44 61 24 33 1016.5 1016.5 0.0
19/01:00pm 11.9 2.2 2.9 54 3.9 SSW 43 61 23 33 1016.7 1016.7 0.0
19/12:30pm 12.0 1.9 3.8 57 3.7 SSW 46 67 25 36 1016.4 1016.4 0.0
19/12:00pm 11.4 1.4 2.4 54 3.9 SW 44 65 24 35 1016.7 1016.7 0.0
19/11:30am 11.3 1.5 3.3 58 3.5 SSW 44 69 24 37 1016.6 1016.6 0.0
19/11:00am 10.9 1.6 2.7 57 3.5 SW 41 65 22 35 1016.5 1016.5 0.0
19/10:30am 10.8 1.6 3.6 61 3.2 SW 41 69 22 37 1016.5 1016.5 0.0
19/10:00am 10.6 1.9 2.2 56 3.6 SW 37 63 20 34 1016.5 1016.5 0.0
19/09:30am 10.3 1.9 1.4 54 3.7 SW 35 54 19 29 1016.6 1016.6 0.0
19/09:01am 10.6 2.7 2.4 57 3.5 SW 33 52 18 28 1016.5 1016.5 0.0
19/09:00am 10.5 2.4 1.3 53 3.8 SW 33 48 18 26 1016.7 1016.7 0.0
19/08:33am 10.0 2.7 0.1 50 4.0 SW 28 46 15 25 1016.7 1016.7 0.0
19/08:30am 10.2 2.8 1.8 56 3.5 SW 30 46 16 25 1016.1 1016.1 0.0
19/08:00am 10.0 1.9 -0.2 49 4.1 SW 32 44 17 24 1016.0 1016.0 0.0
19/07:41am 9.9 2.5 -0.9 47 4.3 SW 28 48 15 26 1016.2 1016.2 0.0
19/07:30am 9.9 3.2 -0.9 47 4.3 SW 24 46 13 25 1015.9 1015.9 0.0
19/07:00am 10.0 2.6 -0.5 48 4.2 SW 28 46 15 25 1015.5 1015.5 0.0
19/06:54am 10.0 2.6 -0.8 47 4.3 SW 28 46 15 25 1015.4 1015.4 0.0
19/06:30am 9.9 4.6 -0.9 47 4.3 WSW 17 30 9 16 1015.1 1015.1 0.0
19/06:00am 9.2 4.2 1.1 57 3.3 WSW 17 24 9 13 1015.0 1015.0 0.0
19/05:30am 9.1 6.3 2.0 61 3.0 W 6 13 3 7 1014.3 1014.3 0.0
19/05:00am 9.1 6.4 2.7 64 2.7 W 6 11 3 6 1014.0 1014.0 0.0
19/04:30am 9.4 6.6 2.0 60 3.1 W 6 11 3 6 1013.7 1013.7 0.0
19/04:00am 9.6 7.0 3.1 64 2.8 W 6 11 3 6 1013.4 1013.3 0.0
19/03:30am 9.4 6.2 3.2 65 2.7 WSW 9 19 5 10 1013.1 1013.0 0.0
19/03:00am 9.4 6.1 2.5 62 2.9 W 9 17 5 9 1012.9 1012.8 0.0
19/02:30am 9.5 6.3 2.8 63 2.9 W 9 20 5 11 1012.7 1012.6 0.0
19/02:00am 9.5 6.6 2.6 62 2.9 W 7 19 4 10 1012.3 1012.2 0.0
19/01:30am 9.6 6.7 2.7 62 3.0 W 7 13 4 7 1012.1 1012.0 0.0
19/01:00am 9.7 6.5 2.8 62 3.0 W 9 17 5 9 1011.8 1011.7 0.0
19/12:30am 9.8 6.6 3.3 64 2.8 W 9 22 5 12 1011.9 1011.8 0.0
19/12:00am 9.8 6.6 2.9 62 3.0 W 9 19 5 10 1011.9 1011.8 0.0
 
Date/Time
EST
Temp
°C
App
Temp
°C
Dew
Point
°C
Rel
Hum
%
Delta-T
°C
Wind Press
QNH
hPa
Press
MSL
hPa
Rain since
9am
mm
Dir  Spd
km/h
Gust
km/h
Spd
kts
Gust
kts
18/11:30pm 10.1 7.3 3.2 62 3.0 W 7 15 4 8 1012.2 1012.1 0.0
18/11:00pm 10.1 6.8 2.7 60 3.2 W 9 17 5 9 1012.0 1011.9 0.0
18/10:30pm 10.5 7.3 3.3 61 3.2 W 9 19 5 10 1011.8 1011.7 0.0
18/10:00pm 10.5 7.2 2.6 58 3.4 W 9 19 5 10 1011.3 1011.2 0.0
18/09:30pm 10.5 6.6 3.5 62 3.1 W 13 28 7 15 1010.9 1010.9 0.0
18/09:00pm 10.6 6.7 3.4 61 3.2 W 13 24 7 13 1010.6 1010.6 0.0
18/08:30pm 10.8 7.4 3.8 62 3.1 W 11 20 6 11 1010.3 1010.3 0.0
18/08:00pm 11.1 7.0 2.4 55 3.8 W 13 32 7 17 1010.0 1010.0 0.0
18/07:30pm 11.5 7.9 3.0 56 3.7 W 11 22 6 12 1009.7 1009.7 0.0
18/07:00pm 11.7 7.8 3.5 57 3.7 W 13 22 7 12 1009.4 1009.4 0.0
18/06:30pm 12.1 8.2 3.3 55 3.9 W 13 24 7 13 1009.2 1009.2 0.0
18/06:00pm 12.3 8.3 3.0 53 4.1 W 13 24 7 13 1008.7 1008.7 0.0
18/05:30pm 12.6 8.2 2.7 51 4.4 W 15 28 8 15 1008.0 1008.0 0.0
18/05:00pm 13.1 8.7 2.9 50 4.5 W 15 28 8 15 1007.6 1007.6 0.0
18/04:30pm 13.6 8.8 0.3 40 5.6 W 15 33 8 18 1007.3 1007.3 0.0
18/04:00pm 14.1 9.1 -1.1 35 6.3 W 15 39 8 21 1006.3 1006.3 0.0
18/03:30pm 14.2 9.4 0.1 38 5.9 W 15 35 8 19 1005.8 1005.8 0.0
18/03:00pm 14.3 9.2 0.9 40 5.8 W 17 32 9 17 1005.7 1005.7 0.0
18/02:30pm 14.0 9.4 1.3 42 5.5 W 15 28 8 15 1005.5 1005.5 0.0
18/02:00pm 14.2 8.8 1.5 42 5.5 W 19 43 10 23 1005.5 1005.5 0.0
18/01:30pm 14.0 8.8 0.3 39 5.8 W 17 35 9 19 1005.2 1005.2 0.0
18/01:00pm 13.8 8.8 1.5 43 5.4 W 17 37 9 20 1004.8 1004.8 0.0
18/12:30pm 13.8 8.3 0.8 41 5.5 W 19 37 10 20 1004.8 1004.8 0.0
18/12:00pm 13.8 7.7 0.5 40 5.7 WSW 22 48 12 26 1005.4 1005.4 0.0
18/11:30am 13.7 9.7 2.6 47 4.9 W 13 28 7 15 1005.5 1005.5 0.0
18/11:00am 13.2 9.1 2.1 47 4.9 W 13 28 7 15 1005.9 1005.9 0.0
18/10:30am 13.3 8.8 0.0 40 5.5 W 13 28 7 15 1006.0 1006.0 0.0
18/10:00am 12.8 7.6 0.2 42 5.3 W 17 37 9 20 1006.2 1006.2 0.0
18/09:30am 12.5 7.8 1.2 46 4.8 W 15 32 8 17 1006.2 1006.2 0.0
18/09:00am 12.2 8.8 1.8 49 4.5 WSW 9 24 5 13 1006.4 1006.4 0.0
18/08:30am 11.9 9.0 2.4 52 4.1 W 7 20 4 11 1006.0 1006.0 0.0
18/08:00am 11.5 8.1 1.7 51 4.2 W 9 19 5 10 1005.9 1005.9 0.0
18/07:30am 11.4 7.3 2.2 53 4.0 W 13 26 7 14 1005.3 1005.3 0.0
18/07:00am 11.2 7.4 3.7 60 3.3 W 13 32 7 17 1004.8 1004.8 0.0
18/06:30am 11.1 6.0 3.2 58 3.5 WNW 19 39 10 21 1004.2 1004.2 0.0
18/06:00am 11.3 5.7 3.6 59 3.4 WNW 22 44 12 24 1003.4 1003.3 0.0
18/05:30am 11.4 6.5 3.9 60 3.4 WNW 19 35 10 19 1003.5 1003.5 0.0

Other Formats:

Comma delimited format used in spreadsheet applications
http://www.bom.gov.au/fwo/IDN60801/IDN60801.95940.axf

JavaScript Object Notation format (JSON) in row-major order
http://www.bom.gov.au/fwo/IDN60801/IDN60801.95940.json